sensor_id;sensor_type;location;lat;lon;timestamp;pressure;altitude;pressure_sealevel;temperature;humidity
13765;BME280;6953;48.810;9.204;2022-09-21T00:01:13;99381.41;;;7.01;100.00
13765;BME280;6953;48.810;9.204;2022-09-21T00:03:39;99560.25;;;8.06;100.00
13765;BME280;6953;48.810;9.204;2022-09-21T00:06:08;99574.00;;;8.13;100.00
13765;BME280;6953;48.810;9.204;2022-09-21T00:08:35;99582.88;;;8.07;100.00
13765;BME280;6953;48.810;9.204;2022-09-21T00:11:00;99473.81;;;7.54;100.00
13765;BME280;6953;48.810;9.204;2022-09-21T00:13:26;99504.84;;;7.66;100.00
13765;BME280;6953;48.810;9.204;2022-09-21T00:15:53;99560.34;;;8.03;100.00
13765;BME280;6953;48.810;9.204;2022-09-21T00:18:19;99454.50;;;7.31;100.00
13765;BME280;6953;48.810;9.204;2022-09-21T00:20:45;99562.63;;;7.85;100.00
13765;BME280;6953;48.810;9.204;2022-09-21T00:23:10;99306.84;;;6.31;100.00
13765;BME280;6953;48.810;9.204;2022-09-21T00:25:36;99565.44;;;7.77;100.00
13765;BME280;6953;48.810;9.204;2022-09-21T00:28:01;99578.34;;;7.83;100.00
13765;BME280;6953;48.810;9.204;2022-09-21T00:30:26;99459.25;;;7.16;100.00
13765;BME280;6953;48.810;9.204;2022-09-21T00:32:52;99495.22;;;7.36;100.00
13765;BME280;6953;48.810;9.204;2022-09-21T00:35:18;99569.69;;;7.81;100.00
13765;BME280;6953;48.810;9.204;2022-09-21T00:37:43;99556.91;;;7.72;100.00
13765;BME280;6953;48.810;9.204;2022-09-21T00:40:09;99568.84;;;7.81;100.00
13765;BME280;6953;48.810;9.204;2022-09-21T00:42:35;99532.88;;;7.60;100.00
13765;BME280;6953;48.810;9.204;2022-09-21T00:45:02;99427.63;;;6.96;100.00
13765;BME280;6953;48.810;9.204;2022-09-21T00:47:41;99269.44;;;6.02;100.00
13765;BME280;6953;48.810;9.204;2022-09-21T00:50:13;99577.00;;;7.69;100.00
13765;BME280;6953;48.810;9.204;2022-09-21T00:52:46;99318.66;;;6.13;100.00
13765;BME280;6953;48.810;9.204;2022-09-21T00:57:52;99527.56;;;7.31;100.00
13765;BME280;6953;48.810;9.204;2022-09-21T01:00:19;99572.28;;;7.51;100.00
13765;BME280;6953;48.810;9.204;2022-09-21T01:02:45;99225.84;;;5.40;100.00
13765;BME280;6953;48.810;9.204;2022-09-21T01:05:10;99576.03;;;7.41;100.00
13765;BME280;6953;48.810;9.204;2022-09-21T01:07:38;99496.34;;;6.96;100.00
13765;BME280;6953;48.810;9.204;2022-09-21T01:10:10;99574.97;;;7.48;100.00
13765;BME280;6953;48.810;9.204;2022-09-21T01:16:02;99555.09;;;7.42;100.00
13765;BME280;6953;48.810;9.204;2022-09-21T01:18:42;99557.69;;;7.44;100.00
13765;BME280;6953;48.810;9.204;2022-09-21T01:21:25;99251.28;;;5.64;100.00
13765;BME280;6953;48.810;9.204;2022-09-21T01:24:17;99327.56;;;6.03;100.00
13765;BME280;6953;48.810;9.204;2022-09-21T01:32:17;99576.06;;;7.39;100.00
13765;BME280;6953;48.810;9.204;2022-09-21T01:34:52;99616.16;;;7.37;100.00
13765;BME280;6953;48.810;9.204;2022-09-21T01:37:24;99580.53;;;7.34;100.00
13765;BME280;6953;48.810;9.204;2022-09-21T01:39:59;99464.19;;;6.62;100.00
13765;BME280;6953;48.810;9.204;2022-09-21T01:42:25;99588.38;;;7.34;100.00
13765;BME280;6953;48.810;9.204;2022-09-21T01:44:55;99316.94;;;5.75;100.00
13765;BME280;6953;48.810;9.204;2022-09-21T01:47:22;99308.41;;;5.70;100.00
13765;BME280;6953;48.810;9.204;2022-09-21T01:49:52;99588.97;;;7.12;100.00
13765;BME280;6953;48.810;9.204;2022-09-21T01:52:25;99525.91;;;6.95;100.00
13765;BME280;6953;48.810;9.204;2022-09-21T01:54:57;99270.81;;;5.45;100.00
13765;BME280;6953;48.810;9.204;2022-09-21T01:57:39;99573.97;;;7.20;100.00
13765;BME280;6953;48.810;9.204;2022-09-21T02:00:07;99619.94;;;7.25;100.00
13765;BME280;6953;48.810;9.204;2022-09-21T02:02:53;99585.13;;;7.26;100.00
13765;BME280;6953;48.810;9.204;2022-09-21T02:05:22;99391.63;;;6.11;100.00
13765;BME280;6953;48.810;9.204;2022-09-21T02:07:50;99548.31;;;7.04;100.00
13765;BME280;6953;48.810;9.204;2022-09-21T02:10:21;99585.56;;;7.09;100.00
13765;BME280;6953;48.810;9.204;2022-09-21T02:12:48;99334.25;;;5.76;100.00
13765;BME280;6953;48.810;9.204;2022-09-21T02:15:21;99591.44;;;7.18;100.00
13765;BME280;6953;48.810;9.204;2022-09-21T02:18:06;99387.50;;;6.01;100.00
13765;BME280;6953;48.810;9.204;2022-09-21T02:20:41;99299.38;;;5.48;100.00
13765;BME280;6953;48.810;9.204;2022-09-21T02:23:28;99588.13;;;7.12;100.00
13765;BME280;6953;48.810;9.204;2022-09-21T02:26:16;99552.22;;;6.86;100.00
13765;BME280;6953;48.810;9.204;2022-09-21T02:28:50;99590.13;;;7.01;100.00
13765;BME280;6953;48.810;9.204;2022-09-21T02:31:28;99328.84;;;5.49;100.00
13765;BME280;6953;48.810;9.204;2022-09-21T02:37:08;99573.97;;;6.85;100.00
13765;BME280;6953;48.810;9.204;2022-09-21T02:39:56;99584.34;;;6.88;100.00
13765;BME280;6953;48.810;9.204;2022-09-21T02:42:26;99581.72;;;6.90;100.00
13765;BME280;6953;48.810;9.204;2022-09-21T02:44:58;99581.72;;;6.88;100.00
13765;BME280;6953;48.810;9.204;2022-09-21T02:47:52;99292.31;;;5.15;100.00
13765;BME280;6953;48.810;9.204;2022-09-21T02:50:25;99526.19;;;6.48;100.00
13765;BME280;6953;48.810;9.204;2022-09-21T02:52:55;99582.03;;;6.76;100.00
13765;BME280;6953;48.810;9.204;2022-09-21T02:55:21;99563.16;;;6.65;100.00
13765;BME280;6953;48.810;9.204;2022-09-21T02:57:48;99582.91;;;6.75;100.00
13765;BME280;6953;48.810;9.204;2022-09-21T03:00:15;99504.94;;;6.28;100.00
13765;BME280;6953;48.810;9.204;2022-09-21T03:02:43;99586.56;;;6.68;100.00
13765;BME280;6953;48.810;9.204;2022-09-21T03:05:10;99282.44;;;4.92;100.00
13765;BME280;6953;48.810;9.204;2022-09-21T03:07:36;99618.84;;;6.63;100.00
13765;BME280;6953;48.810;9.204;2022-09-21T03:10:02;99571.22;;;6.55;100.00
13765;BME280;6953;48.810;9.204;2022-09-21T03:12:28;99583.28;;;6.59;100.00
13765;BME280;6953;48.810;9.204;2022-09-21T03:14:54;99582.47;;;6.58;100.00
13765;BME280;6953;48.810;9.204;2022-09-21T03:17:20;99605.03;;;6.58;100.00
13765;BME280;6953;48.810;9.204;2022-09-21T03:19:46;99594.84;;;6.49;100.00
13765;BME280;6953;48.810;9.204;2022-09-21T03:22:11;99485.59;;;6.02;100.00
13765;BME280;6953;48.810;9.204;2022-09-21T03:24:36;99262.88;;;4.74;100.00
13765;BME280;6953;48.810;9.204;2022-09-21T03:27:18;99604.19;;;6.57;100.00
13765;BME280;6953;48.810;9.204;2022-09-21T03:29:45;99521.75;;;6.16;100.00
13765;BME280;6953;48.810;9.204;2022-09-21T03:32:10;99583.44;;;6.53;100.00
13765;BME280;6953;48.810;9.204;2022-09-21T03:34:36;99623.34;;;6.55;100.00
13765;BME280;6953;48.810;9.204;2022-09-21T03:37:03;99300.78;;;4.86;100.00
13765;BME280;6953;48.810;9.204;2022-09-21T03:39:29;99404.59;;;5.35;100.00
13765;BME280;6953;48.810;9.204;2022-09-21T03:41:54;99595.63;;;6.52;100.00
13765;BME280;6953;48.810;9.204;2022-09-21T03:44:21;99599.91;;;6.55;100.00
13765;BME280;6953;48.810;9.204;2022-09-21T03:46:47;99533.13;;;6.12;100.00
13765;BME280;6953;48.810;9.204;2022-09-21T03:49:12;99602.66;;;6.49;100.00
13765;BME280;6953;48.810;9.204;2022-09-21T03:51:37;99585.53;;;6.37;100.00
13765;BME280;6953;48.810;9.204;2022-09-21T03:54:04;99578.63;;;6.36;100.00
13765;BME280;6953;48.810;9.204;2022-09-21T03:56:29;99603.63;;;6.43;100.00
13765;BME280;6953;48.810;9.204;2022-09-21T03:58:55;99373.13;;;5.07;100.00
13765;BME280;6953;48.810;9.204;2022-09-21T04:01:20;99603.56;;;6.46;100.00
13765;BME280;6953;48.810;9.204;2022-09-21T04:03:46;99586.31;;;6.41;100.00
13765;BME280;6953;48.810;9.204;2022-09-21T04:06:11;99572.59;;;6.33;100.00
13765;BME280;6953;48.810;9.204;2022-09-21T04:08:37;99607.75;;;6.53;100.00
13765;BME280;6953;48.810;9.204;2022-09-21T04:11:14;99603.50;;;6.49;100.00
13765;BME280;6953;48.810;9.204;2022-09-21T04:13:40;99604.38;;;6.50;100.00
13765;BME280;6953;48.810;9.204;2022-09-21T04:16:09;99296.88;;;4.64;100.00
13765;BME280;6953;48.810;9.204;2022-09-21T04:18:35;99595.97;;;6.36;100.00
13765;BME280;6953;48.810;9.204;2022-09-21T04:21:02;99611.50;;;6.42;100.00
13765;BME280;6953;48.810;9.204;2022-09-21T04:23:27;99633.19;;;6.42;100.00
13765;BME280;6953;48.810;9.204;2022-09-21T04:25:54;99541.34;;;5.94;100.00
13765;BME280;6953;48.810;9.204;2022-09-21T04:28:20;99327.91;;;4.71;100.00
13765;BME280;6953;48.810;9.204;2022-09-21T04:30:45;99551.75;;;5.94;100.00
13765;BME280;6953;48.810;9.204;2022-09-21T04:33:11;99329.63;;;4.71;100.00
13765;BME280;6953;48.810;9.204;2022-09-21T04:35:36;99592.00;;;6.20;100.00
13765;BME280;6953;48.810;9.204;2022-09-21T04:38:02;99621.22;;;6.34;100.00
13765;BME280;6953;48.810;9.204;2022-09-21T04:40:27;99657.78;;;6.31;100.00
13765;BME280;6953;48.810;9.204;2022-09-21T04:42:53;99340.19;;;4.63;100.00
13765;BME280;6953;48.810;9.204;2022-09-21T04:45:20;99579.41;;;6.01;100.00
13765;BME280;6953;48.810;9.204;2022-09-21T04:47:45;99339.44;;;4.57;100.00
13765;BME280;6953;48.810;9.204;2022-09-21T04:50:11;99562.41;;;5.82;100.00
13765;BME280;6953;48.810;9.204;2022-09-21T04:52:36;99626.78;;;6.18;100.00
13765;BME280;6953;48.810;9.204;2022-09-21T04:55:02;99546.94;;;5.73;100.00
13765;BME280;6953;48.810;9.204;2022-09-21T04:57:27;99385.88;;;4.75;100.00
13765;BME280;6953;48.810;9.204;2022-09-21T04:59:52;99627.75;;;6.12;100.00
13765;BME280;6953;48.810;9.204;2022-09-21T05:02:18;99614.94;;;6.02;100.00
13765;BME280;6953;48.810;9.204;2022-09-21T05:04:43;99637.44;;;6.07;100.00
13765;BME280;6953;48.810;9.204;2022-09-21T05:07:08;99646.09;;;6.08;100.00
13765;BME280;6953;48.810;9.204;2022-09-21T05:09:34;99639.16;;;6.07;100.00
13765;BME280;6953;48.810;9.204;2022-09-21T05:12:17;99668.63;;;6.10;100.00
13765;BME280;6953;48.810;9.204;2022-09-21T05:14:43;99642.50;;;6.13;100.00
13765;BME280;6953;48.810;9.204;2022-09-21T05:17:09;99641.59;;;6.16;100.00
13765;BME280;6953;48.810;9.204;2022-09-21T05:19:35;99361.16;;;4.53;100.00
13765;BME280;6953;48.810;9.204;2022-09-21T05:22:00;99638.06;;;6.18;100.00
13765;BME280;6953;48.810;9.204;2022-09-21T05:24:26;99562.94;;;5.53;100.00
13765;BME280;6953;48.810;9.204;2022-09-21T05:26:51;99677.88;;;6.24;100.00
13765;BME280;6953;48.810;9.204;2022-09-21T05:29:17;99553.81;;;5.77;100.00
13765;BME280;6953;48.810;9.204;2022-09-21T05:31:48;99648.09;;;6.36;100.00
13765;BME280;6953;48.810;9.204;2022-09-21T05:39:46;99440.34;;;5.26;100.00
13765;BME280;6953;48.810;9.204;2022-09-21T05:42:11;99641.66;;;6.53;100.00
13765;BME280;6953;48.810;9.204;2022-09-21T05:44:37;99643.13;;;6.65;100.00
13765;BME280;6953;48.810;9.204;2022-09-21T05:47:21;99372.19;;;5.09;100.00
13765;BME280;6953;48.810;9.204;2022-09-21T05:52:52;99631.53;;;6.78;100.00
13765;BME280;6953;48.810;9.204;2022-09-21T05:55:27;99670.22;;;6.96;100.00
13765;BME280;6953;48.810;9.204;2022-09-21T06:03:28;99576.56;;;6.85;100.00
13765;BME280;6953;48.810;9.204;2022-09-21T06:05:54;99324.63;;;5.43;100.00
13765;BME280;6953;48.810;9.204;2022-09-21T06:08:19;99647.50;;;7.35;100.00
13765;BME280;6953;48.810;9.204;2022-09-21T06:10:46;99384.19;;;5.95;100.00
13765;BME280;6953;48.810;9.204;2022-09-21T06:13:11;99579.97;;;7.23;100.00
13765;BME280;6953;48.810;9.204;2022-09-21T06:15:37;99691.69;;;7.78;100.00
13765;BME280;6953;48.810;9.204;2022-09-21T06:18:04;99505.00;;;6.97;100.00
13765;BME280;6953;48.810;9.204;2022-09-21T06:20:30;99608.53;;;7.63;100.00
13765;BME280;6953;48.810;9.204;2022-09-21T06:23:10;99669.75;;;8.17;100.00
13765;BME280;6953;48.810;9.204;2022-09-21T06:25:36;99675.53;;;8.27;100.00
13765;BME280;6953;48.810;9.204;2022-09-21T06:28:03;99572.31;;;7.81;100.00
13765;BME280;6953;48.810;9.204;2022-09-21T06:30:30;99599.31;;;8.11;100.00
13765;BME280;6953;48.810;9.204;2022-09-21T06:32:58;99705.84;;;8.65;100.00
13765;BME280;6953;48.810;9.204;2022-09-21T06:35:25;99658.66;;;8.68;100.00
13765;BME280;6953;48.810;9.204;2022-09-21T06:37:50;99672.09;;;8.85;100.00
13765;BME280;6953;48.810;9.204;2022-09-21T06:40:15;99666.44;;;8.98;100.00
13765;BME280;6953;48.810;9.204;2022-09-21T06:42:41;99658.50;;;9.01;100.00
13765;BME280;6953;48.810;9.204;2022-09-21T06:45:06;99668.31;;;9.22;100.00
13765;BME280;6953;48.810;9.204;2022-09-21T06:47:32;99670.47;;;9.35;100.00
13765;BME280;6953;48.810;9.204;2022-09-21T06:49:57;99652.91;;;9.39;100.00
13765;BME280;6953;48.810;9.204;2022-09-21T06:52:22;99662.84;;;9.54;100.00
13765;BME280;6953;48.810;9.204;2022-09-21T06:54:48;99446.13;;;8.35;100.00
13765;BME280;6953;48.810;9.204;2022-09-21T06:57:13;99651.66;;;10.01;100.00
13765;BME280;6953;48.810;9.204;2022-09-21T06:59:39;99666.94;;;11.68;100.00
13765;BME280;6953;48.810;9.204;2022-09-21T07:02:04;99613.22;;;12.52;100.00
13765;BME280;6953;48.810;9.204;2022-09-21T07:04:30;99669.41;;;13.61;100.00
13765;BME280;6953;48.810;9.204;2022-09-21T07:06:56;99397.94;;;13.58;100.00
13765;BME280;6953;48.810;9.204;2022-09-21T07:09:21;99434.53;;;15.61;96.21
13765;BME280;6953;48.810;9.204;2022-09-21T07:11:47;99659.75;;;18.68;83.34
13765;BME280;6953;48.810;9.204;2022-09-21T07:14:12;99652.88;;;19.96;73.24
13765;BME280;6953;48.810;9.204;2022-09-21T07:16:39;99640.63;;;20.95;69.65
13765;BME280;6953;48.810;9.204;2022-09-21T07:19:05;99580.41;;;21.66;59.73
13765;BME280;6953;48.810;9.204;2022-09-21T07:21:30;99628.16;;;22.52;57.74
13765;BME280;6953;48.810;9.204;2022-09-21T07:23:58;99508.34;;;22.05;55.31
13765;BME280;6953;48.810;9.204;2022-09-21T07:26:24;99688.28;;;23.77;50.01
13765;BME280;6953;48.810;9.204;2022-09-21T07:28:50;99666.91;;;24.80;49.71
13765;BME280;6953;48.810;9.204;2022-09-21T07:31:15;99536.75;;;24.38;46.17
13765;BME280;6953;48.810;9.204;2022-09-21T07:33:43;99542.09;;;24.84;41.38
13765;BME280;6953;48.810;9.204;2022-09-21T07:36:11;99665.88;;;26.33;37.05
13765;BME280;6953;48.810;9.204;2022-09-21T07:38:38;99697.19;;;26.94;35.61
13765;BME280;6953;48.810;9.204;2022-09-21T07:41:08;99488.78;;;26.36;32.90
13765;BME280;6953;48.810;9.204;2022-09-21T07:43:34;99672.94;;;28.26;31.60
13765;BME280;6953;48.810;9.204;2022-09-21T07:46:00;99499.06;;;27.15;32.31
13765;BME280;6953;48.810;9.204;2022-09-21T07:48:28;99679.53;;;28.63;30.72
13765;BME280;6953;48.810;9.204;2022-09-21T07:50:54;99526.56;;;28.62;29.01
13765;BME280;6953;48.810;9.204;2022-09-21T07:53:22;99689.41;;;30.03;27.78
13765;BME280;6953;48.810;9.204;2022-09-21T07:55:48;99686.84;;;30.32;27.53
13765;BME280;6953;48.810;9.204;2022-09-21T07:58:14;99706.59;;;30.63;27.27
13765;BME280;6953;48.810;9.204;2022-09-21T08:00:58;99694.09;;;31.42;25.20
13765;BME280;6953;48.810;9.204;2022-09-21T08:03:25;99702.22;;;31.42;24.42
13765;BME280;6953;48.810;9.204;2022-09-21T08:05:50;99702.47;;;31.03;25.47
13765;BME280;6953;48.810;9.204;2022-09-21T08:08:16;99534.31;;;29.86;25.00
13765;BME280;6953;48.810;9.204;2022-09-21T08:10:41;99682.81;;;31.01;25.27
13765;BME280;6953;48.810;9.204;2022-09-21T08:13:07;99698.28;;;31.44;23.86
13765;BME280;6953;48.810;9.204;2022-09-21T08:15:32;99538.97;;;30.37;23.96
13765;BME280;6953;48.810;9.204;2022-09-21T08:17:58;99714.59;;;31.73;24.01
13765;BME280;6953;48.810;9.204;2022-09-21T08:20:24;99616.44;;;31.12;24.44
13765;BME280;6953;48.810;9.204;2022-09-21T08:22:50;99573.97;;;30.24;24.31
13765;BME280;6953;48.810;9.204;2022-09-21T08:25:17;99685.16;;;30.31;25.90
13765;BME280;6953;48.810;9.204;2022-09-21T08:27:42;99687.59;;;29.87;26.39
13765;BME280;6953;48.810;9.204;2022-09-21T08:30:08;99645.44;;;30.23;25.28
13765;BME280;6953;48.810;9.204;2022-09-21T08:32:33;99535.47;;;29.92;25.42
13765;BME280;6953;48.810;9.204;2022-09-21T08:34:58;99702.03;;;31.58;24.25
13765;BME280;6953;48.810;9.204;2022-09-21T08:37:24;99679.72;;;32.47;22.90
13765;BME280;6953;48.810;9.204;2022-09-21T08:39:49;99700.44;;;32.69;23.06
13765;BME280;6953;48.810;9.204;2022-09-21T08:43:01;99686.28;;;32.59;22.56
13765;BME280;6953;48.810;9.204;2022-09-21T08:45:32;99699.59;;;33.57;22.00
13765;BME280;6953;48.810;9.204;2022-09-21T08:48:02;99710.56;;;33.64;21.92
13765;BME280;6953;48.810;9.204;2022-09-21T08:53:00;99624.19;;;32.14;23.02
13765;BME280;6953;48.810;9.204;2022-09-21T08:55:27;99688.63;;;33.44;22.30
13765;BME280;6953;48.810;9.204;2022-09-21T08:57:53;99690.25;;;34.26;21.51
13765;BME280;6953;48.810;9.204;2022-09-21T09:00:19;99689.25;;;34.53;20.82
13765;BME280;6953;48.810;9.204;2022-09-21T09:05:45;99709.31;;;35.68;19.71
13765;BME280;6953;48.810;9.204;2022-09-21T09:16:35;99707.63;;;34.12;20.51
13765;BME280;6953;48.810;9.204;2022-09-21T09:19:19;99578.22;;;33.89;20.95
13765;BME280;6953;48.810;9.204;2022-09-21T09:21:47;99669.72;;;35.27;19.24
13765;BME280;6953;48.810;9.204;2022-09-21T09:24:45;99692.34;;;36.47;18.17
13765;BME280;6953;48.810;9.204;2022-09-21T09:27:28;99595.50;;;36.24;17.88
13765;BME280;6953;48.810;9.204;2022-09-21T09:30:14;99662.25;;;36.47;17.86
13765;BME280;6953;48.810;9.204;2022-09-21T09:36:05;99687.78;;;36.90;16.93
13765;BME280;6953;48.810;9.204;2022-09-21T09:38:28;99524.69;;;35.85;17.15
13765;BME280;6953;48.810;9.204;2022-09-21T09:41:16;99685.09;;;36.59;17.49
13765;BME280;6953;48.810;9.204;2022-09-21T09:46:31;99687.59;;;37.34;16.66
13765;BME280;6953;48.810;9.204;2022-09-21T09:51:34;99702.31;;;37.57;16.22
13765;BME280;6953;48.810;9.204;2022-09-21T09:54:01;99669.13;;;37.65;15.45
13765;BME280;6953;48.810;9.204;2022-09-21T09:56:30;99536.72;;;36.33;16.16
13765;BME280;6953;48.810;9.204;2022-09-21T09:58:57;99677.00;;;37.73;15.85
13765;BME280;6953;48.810;9.204;2022-09-21T10:01:45;99473.78;;;36.15;16.54
13765;BME280;6953;48.810;9.204;2022-09-21T10:04:13;99525.47;;;35.92;16.72
13765;BME280;6953;48.810;9.204;2022-09-21T10:06:39;99669.78;;;36.21;16.80
13765;BME280;6953;48.810;9.204;2022-09-21T10:09:26;99663.50;;;36.76;15.99
13765;BME280;6953;48.810;9.204;2022-09-21T10:11:55;99484.88;;;35.96;16.19
13765;BME280;6953;48.810;9.204;2022-09-21T10:14:23;99665.88;;;38.04;15.60
13765;BME280;6953;48.810;9.204;2022-09-21T10:16:51;99662.56;;;39.41;14.57
13765;BME280;6953;48.810;9.204;2022-09-21T10:19:23;99685.34;;;38.84;14.44
13765;BME280;6953;48.810;9.204;2022-09-21T10:21:55;99656.78;;;38.22;15.07
13765;BME280;6953;48.810;9.204;2022-09-21T10:27:24;99688.06;;;39.87;13.58
13765;BME280;6953;48.810;9.204;2022-09-21T10:29:47;99667.44;;;39.51;14.17
13765;BME280;6953;48.810;9.204;2022-09-21T10:34:42;99547.84;;;41.45;13.04
13765;BME280;6953;48.810;9.204;2022-09-21T10:37:29;99649.97;;;43.09;12.87
13765;BME280;6953;48.810;9.204;2022-09-21T10:39:58;99643.31;;;41.13;14.13
13765;BME280;6953;48.810;9.204;2022-09-21T10:42:23;99479.91;;;36.35;16.63
13765;BME280;6953;48.810;9.204;2022-09-21T10:45:17;99625.56;;;37.22;17.55
13765;BME280;6953;48.810;9.204;2022-09-21T10:50:34;99595.19;;;35.14;19.10
13765;BME280;6953;48.810;9.204;2022-09-21T10:55:36;99599.50;;;37.37;17.27
13765;BME280;6953;48.810;9.204;2022-09-21T10:58:07;99616.94;;;37.43;16.41
13765;BME280;6953;48.810;9.204;2022-09-21T11:00:41;99601.53;;;35.64;18.18
13765;BME280;6953;48.810;9.204;2022-09-21T11:06:06;99573.06;;;29.34;24.83
13765;BME280;6953;48.810;9.204;2022-09-21T11:11:26;99559.09;;;26.41;30.46
13765;BME280;6953;48.810;9.204;2022-09-21T11:14:13;99548.53;;;25.44;32.80
13765;BME280;6953;48.810;9.204;2022-09-21T11:16:50;99541.16;;;27.08;31.36
13765;BME280;6953;48.810;9.204;2022-09-21T11:27:34;99593.41;;;37.53;16.51
13765;BME280;6953;48.810;9.204;2022-09-21T11:30:15;99606.09;;;38.88;15.34
13765;BME280;6953;48.810;9.204;2022-09-21T11:35:47;99614.28;;;40.40;13.78
13765;BME280;6953;48.810;9.204;2022-09-21T11:52:46;99568.47;;;35.28;17.67
13765;BME280;6953;48.810;9.204;2022-09-21T11:55:56;99560.41;;;33.99;18.99
13765;BME280;6953;48.810;9.204;2022-09-21T11:58:35;99554.59;;;33.02;19.09
13765;BME280;6953;48.810;9.204;2022-09-21T12:11:56;99509.59;;;27.82;24.93
13765;BME280;6953;48.810;9.204;2022-09-21T12:20:14;99517.44;;;29.01;23.14
13765;BME280;6953;48.810;9.204;2022-09-21T12:22:44;99529.13;;;28.16;24.34
13765;BME280;6953;48.810;9.204;2022-09-21T12:25:17;99521.72;;;30.67;22.04
13765;BME280;6953;48.810;9.204;2022-09-21T12:27:55;99500.53;;;29.82;22.49
13765;BME280;6953;48.810;9.204;2022-09-21T12:30:23;99509.34;;;31.43;20.97
13765;BME280;6953;48.810;9.204;2022-09-21T12:32:58;99330.34;;;31.77;19.54
13765;BME280;6953;48.810;9.204;2022-09-21T12:35:42;99520.63;;;31.82;20.75
13765;BME280;6953;48.810;9.204;2022-09-21T12:38:40;99518.22;;;29.93;22.18
13765;BME280;6953;48.810;9.204;2022-09-21T12:41:10;99535.06;;;28.19;24.60
13765;BME280;6953;48.810;9.204;2022-09-21T12:46:45;99490.69;;;27.58;25.54
13765;BME280;6953;48.810;9.204;2022-09-21T12:49:18;99495.31;;;26.34;26.73
13765;BME280;6953;48.810;9.204;2022-09-21T12:51:52;99432.53;;;24.70;28.23
13765;BME280;6953;48.810;9.204;2022-09-21T12:54:40;99480.53;;;25.00;29.49
13765;BME280;6953;48.810;9.204;2022-09-21T12:57:20;99479.22;;;24.86;28.77
13765;BME280;6953;48.810;9.204;2022-09-21T13:00:01;99229.09;;;22.19;30.81
13765;BME280;6953;48.810;9.204;2022-09-21T13:02:36;99279.03;;;24.92;27.59
13765;BME280;6953;48.810;9.204;2022-09-21T13:10:58;99539.75;;;35.20;16.59
13765;BME280;6953;48.810;9.204;2022-09-21T13:16:00;99426.03;;;35.69;14.91
13765;BME280;6953;48.810;9.204;2022-09-21T13:18:37;99385.94;;;34.38;15.43
13765;BME280;6953;48.810;9.204;2022-09-21T13:21:20;99433.19;;;32.88;17.19
13765;BME280;6953;48.810;9.204;2022-09-21T13:23:55;99537.34;;;33.89;16.62
13765;BME280;6953;48.810;9.204;2022-09-21T13:31:52;99524.66;;;30.29;20.24
13765;BME280;6953;48.810;9.204;2022-09-21T13:34:30;99366.63;;;27.58;22.94
13765;BME280;6953;48.810;9.204;2022-09-21T13:39:49;99433.28;;;25.84;26.25
13765;BME280;6953;48.810;9.204;2022-09-21T13:47:39;99430.78;;;24.78;28.26
13765;BME280;6953;48.810;9.204;2022-09-21T13:50:28;99202.47;;;22.74;29.30
13765;BME280;6953;48.810;9.204;2022-09-21T13:52:59;99412.88;;;23.60;30.51
13765;BME280;6953;48.810;9.204;2022-09-21T13:58:00;99427.19;;;23.13;30.22
13765;BME280;6953;48.810;9.204;2022-09-21T14:00:42;99265.66;;;22.00;30.84
13765;BME280;6953;48.810;9.204;2022-09-21T14:03:22;99429.97;;;22.84;31.45
13765;BME280;6953;48.810;9.204;2022-09-21T14:05:52;99222.22;;;21.58;31.25
13765;BME280;6953;48.810;9.204;2022-09-21T14:08:34;99423.47;;;22.77;31.90
13765;BME280;6953;48.810;9.204;2022-09-21T14:11:07;99436.47;;;22.81;32.08
13765;BME280;6953;48.810;9.204;2022-09-21T14:14:25;99440.38;;;22.77;33.57
13765;BME280;6953;48.810;9.204;2022-09-21T14:16:49;99405.78;;;22.36;33.87
13765;BME280;6953;48.810;9.204;2022-09-21T14:30:14;99426.91;;;21.39;35.02
13765;BME280;6953;48.810;9.204;2022-09-21T14:32:51;99426.91;;;21.39;35.02
13765;BME280;6953;48.810;9.204;2022-09-21T14:35:22;99422.66;;;20.31;37.00
13765;BME280;6953;48.810;9.204;2022-09-21T14:37:51;99420.97;;;20.08;37.72
13765;BME280;6953;48.810;9.204;2022-09-21T14:40:30;99415.53;;;19.99;37.87
13765;BME280;6953;48.810;9.204;2022-09-21T14:43:00;99445.28;;;19.93;37.92
13765;BME280;6953;48.810;9.204;2022-09-21T14:46:14;99411.78;;;20.12;38.51
13765;BME280;6953;48.810;9.204;2022-09-21T14:51:45;99185.72;;;19.22;36.63
13765;BME280;6953;48.810;9.204;2022-09-21T15:00:12;99425.31;;;19.98;36.17
13765;BME280;6953;48.810;9.204;2022-09-21T15:02:40;99427.72;;;19.69;36.64
13765;BME280;6953;48.810;9.204;2022-09-21T15:07:40;99406.97;;;19.05;37.56
13765;BME280;6953;48.810;9.204;2022-09-21T15:10:36;99407.25;;;18.89;38.67
13765;BME280;6953;48.810;9.204;2022-09-21T15:16:41;99377.00;;;18.56;39.55
13765;BME280;6953;48.810;9.204;2022-09-21T15:21:49;99401.75;;;18.69;40.07
13765;BME280;6953;48.810;9.204;2022-09-21T15:24:20;99406.56;;;18.64;38.86
13765;BME280;6953;48.810;9.204;2022-09-21T15:26:47;99439.31;;;18.65;38.89
13765;BME280;6953;48.810;9.204;2022-09-21T15:29:24;99150.31;;;17.15;38.17
13765;BME280;6953;48.810;9.204;2022-09-21T15:31:50;99346.00;;;18.21;38.84
13765;BME280;6953;48.810;9.204;2022-09-21T15:34:15;99401.28;;;18.52;39.31
13765;BME280;6953;48.810;9.204;2022-09-21T15:36:42;99199.94;;;17.26;39.17
13765;BME280;6953;48.810;9.204;2022-09-21T15:39:24;99374.94;;;18.25;39.15
13765;BME280;6953;48.810;9.204;2022-09-21T15:44:35;99403.81;;;18.30;39.55
13765;BME280;6953;48.810;9.204;2022-09-21T15:47:02;99405.72;;;18.28;39.42
13765;BME280;6953;48.810;9.204;2022-09-21T15:49:28;99387.25;;;18.14;39.83
13765;BME280;6953;48.810;9.204;2022-09-21T15:52:01;99401.91;;;18.19;40.34
13765;BME280;6953;48.810;9.204;2022-09-21T15:54:30;99171.91;;;16.86;39.60
13765;BME280;6953;48.810;9.204;2022-09-21T15:56:59;99237.19;;;17.24;39.92
13765;BME280;6953;48.810;9.204;2022-09-21T15:59:26;99397.03;;;18.13;39.47
13765;BME280;6953;48.810;9.204;2022-09-21T16:01:55;99314.84;;;17.64;39.52
13765;BME280;6953;48.810;9.204;2022-09-21T16:04:23;99222.78;;;17.03;39.88
13765;BME280;6953;48.810;9.204;2022-09-21T16:07:24;99212.91;;;16.93;39.95
13765;BME280;6953;48.810;9.204;2022-09-21T16:09:49;99369.41;;;17.55;40.86
13765;BME280;6953;48.810;9.204;2022-09-21T16:12:33;99396.06;;;17.41;41.75
13765;BME280;6953;48.810;9.204;2022-09-21T16:15:06;99311.34;;;17.13;41.51
13765;BME280;6953;48.810;9.204;2022-09-21T16:17:36;99409.63;;;17.62;41.77